createdAt,value
2019-05-18T00:01:42.056Z,6.80
2019-05-18T00:04:09.486Z,6.57
2019-05-18T00:06:36.924Z,6.00
2019-05-18T00:09:04.370Z,6.17
2019-05-18T00:11:32.167Z,6.10
2019-05-18T00:13:59.621Z,6.07
2019-05-18T00:16:27.079Z,6.60
2019-05-18T00:18:54.538Z,6.43
2019-05-18T00:21:21.992Z,6.90
2019-05-18T00:23:49.444Z,6.50
2019-05-18T00:26:16.918Z,6.77
2019-05-18T00:28:44.359Z,6.37
2019-05-18T00:31:11.822Z,6.75
2019-05-18T00:33:39.261Z,6.80
2019-05-18T00:36:06.713Z,7.07
2019-05-18T00:38:34.177Z,6.63
2019-05-18T00:41:01.640Z,7.50
2019-05-18T00:43:29.087Z,6.27
2019-05-18T00:45:56.517Z,6.27
2019-05-18T00:48:23.981Z,6.00
2019-05-18T00:50:51.437Z,7.07
2019-05-18T00:53:18.877Z,6.57
2019-05-18T00:55:46.295Z,6.70
2019-05-18T00:58:13.796Z,6.43
2019-05-18T01:00:41.241Z,6.67
2019-05-18T01:03:08.705Z,6.80
2019-05-18T01:05:37.980Z,7.37
2019-05-18T01:08:03.601Z,7.43
2019-05-18T01:10:31.032Z,6.97
2019-05-18T01:12:58.482Z,6.60
2019-05-18T01:15:25.929Z,6.80
2019-05-18T01:17:57.558Z,7.10
2019-05-18T01:20:21.747Z,6.63
2019-05-18T01:22:49.204Z,6.53
2019-05-18T01:25:16.648Z,6.55
2019-05-18T01:27:44.087Z,6.27
2019-05-18T01:30:11.549Z,6.53
2019-05-18T01:32:38.992Z,5.93
2019-05-18T01:35:06.455Z,6.23
2019-05-18T01:37:33.916Z,5.93
2019-05-18T01:40:01.377Z,6.43
2019-05-18T01:42:28.807Z,5.93
2019-05-18T01:44:56.264Z,5.73
2019-05-18T01:47:23.691Z,5.80
2019-05-18T01:49:51.191Z,5.73
2019-05-18T01:52:18.617Z,5.40
2019-05-18T01:54:46.055Z,5.80
2019-05-18T01:57:13.515Z,5.97
2019-05-18T01:59:40.989Z,6.30
2019-05-18T02:02:08.462Z,6.12
2019-05-18T02:04:35.913Z,6.30
2019-05-18T02:07:03.389Z,7.13
2019-05-18T02:09:30.867Z,7.50
2019-05-18T02:11:58.305Z,6.87
2019-05-18T02:14:25.762Z,7.13
2019-05-18T02:16:53.203Z,6.80
2019-05-18T02:19:20.666Z,7.27
2019-05-18T02:21:48.075Z,6.90
2019-05-18T02:24:15.531Z,6.60
2019-05-18T02:26:42.981Z,6.30
2019-05-18T02:29:10.417Z,6.37
2019-05-18T02:31:37.899Z,6.43
2019-05-18T02:34:05.475Z,5.87
2019-05-18T02:36:32.993Z,6.10
2019-05-18T02:39:00.573Z,6.50
2019-05-18T02:41:28.025Z,6.20
2019-05-18T02:43:55.490Z,6.50
2019-05-18T02:46:22.961Z,6.53
2019-05-18T02:48:50.912Z,6.72
2019-05-18T02:51:17.837Z,6.77
2019-05-18T02:53:45.310Z,6.20
2019-05-18T02:56:12.773Z,6.62
2019-05-18T02:58:40.187Z,6.00
2019-05-18T03:01:07.621Z,6.70
2019-05-18T03:03:35.708Z,6.43
2019-05-18T03:06:03.153Z,7.20
2019-05-18T03:08:30.596Z,7.00
2019-05-18T03:10:58.027Z,7.20
2019-05-18T03:13:25.485Z,7.00
2019-05-18T03:15:52.951Z,7.03
2019-05-18T03:18:20.987Z,6.25
2019-05-18T03:20:48.442Z,7.17
2019-05-18T03:23:15.890Z,6.10
2019-05-18T03:25:43.331Z,6.40
2019-05-18T03:28:10.795Z,5.90
2019-05-18T03:30:38.260Z,6.37
2019-05-18T03:33:06.325Z,7.07
2019-05-18T03:35:33.866Z,7.93
2019-05-18T03:38:01.290Z,7.20
2019-05-18T03:40:28.748Z,6.63
2019-05-18T03:42:56.171Z,6.73
2019-05-18T03:45:23.614Z,6.57
2019-05-18T03:47:51.585Z,6.72
2019-05-18T03:50:19.044Z,6.67
2019-05-18T03:52:46.475Z,6.43
2019-05-18T03:55:15.828Z,6.40
2019-05-18T03:57:43.439Z,7.00
2019-05-18T04:00:10.918Z,6.33
2019-05-18T04:02:38.368Z,6.30
2019-05-18T04:05:05.833Z,6.85
2019-05-18T04:07:33.293Z,7.25
2019-05-18T04:10:00.765Z,6.78
2019-05-18T04:12:28.210Z,6.87
2019-05-18T04:14:55.671Z,6.63
2019-05-18T04:17:23.139Z,6.77
2019-05-18T04:19:51.470Z,7.10
2019-05-18T04:22:18.919Z,7.27
2019-05-18T04:24:46.365Z,7.17
2019-05-18T04:27:13.791Z,7.93
2019-05-18T04:29:41.244Z,7.30
2019-05-18T04:32:08.689Z,6.77
2019-05-18T04:34:36.152Z,6.45
2019-05-18T04:37:03.596Z,7.53
2019-05-18T04:39:31.036Z,6.97
2019-05-18T04:41:59.115Z,6.73
2019-05-18T04:44:26.624Z,7.10
2019-05-18T04:46:54.056Z,6.60
2019-05-18T04:49:21.516Z,7.07
2019-05-18T04:51:48.953Z,6.93
2019-05-18T04:54:17.249Z,6.40
2019-05-18T04:56:44.735Z,7.20
2019-05-18T04:59:12.175Z,6.93
2019-05-18T05:01:39.667Z,7.53
2019-05-18T05:04:07.112Z,7.07
2019-05-18T05:06:35.561Z,7.53
2019-05-18T05:09:03.114Z,6.40
2019-05-18T05:11:30.605Z,6.53
2019-05-18T05:13:58.066Z,7.17
2019-05-18T05:16:25.526Z,6.13
2019-05-18T05:18:53.289Z,6.97
2019-05-18T05:21:20.753Z,6.77
2019-05-18T05:23:48.206Z,6.68
2019-05-18T05:26:15.687Z,6.17
2019-05-18T05:28:43.102Z,6.93
2019-05-18T05:31:10.542Z,7.73
2019-05-18T05:33:37.983Z,6.23
2019-05-18T05:36:05.457Z,6.32
2019-05-18T05:38:32.932Z,7.05
2019-05-18T05:41:00.386Z,6.63
2019-05-18T05:43:28.706Z,6.47
2019-05-18T05:48:16.876Z,5.87
2019-05-18T05:50:44.309Z,6.40
2019-05-18T05:53:11.741Z,6.00
2019-05-18T05:55:40.061Z,6.03
2019-05-18T05:58:07.594Z,6.40
2019-05-18T06:00:35.008Z,6.20
2019-05-18T06:03:02.441Z,5.80
2019-05-18T06:05:29.912Z,6.20
2019-05-18T06:07:57.378Z,5.90
2019-05-18T06:10:24.891Z,6.47
2019-05-18T06:12:52.375Z,6.53
2019-05-18T06:15:19.818Z,6.33
2019-05-18T06:17:47.293Z,6.60
2019-05-18T06:20:14.730Z,6.33
2019-05-18T06:22:42.211Z,6.23
2019-05-18T06:25:09.717Z,6.62
2019-05-18T06:27:37.154Z,6.63
2019-05-18T06:30:04.634Z,6.80
2019-05-18T06:32:32.102Z,6.50
2019-05-18T06:34:59.543Z,6.80
2019-05-18T06:37:26.967Z,6.33
2019-05-18T06:39:54.738Z,6.12
2019-05-18T06:42:22.160Z,6.43
2019-05-18T06:44:50.693Z,6.27
2019-05-18T06:47:20.103Z,6.63
2019-05-18T06:49:48.252Z,6.80
2019-05-18T06:52:15.961Z,6.80
2019-05-18T06:54:44.131Z,6.77
2019-05-18T06:57:11.716Z,6.43
2019-05-18T06:59:39.155Z,6.72
2019-05-18T07:02:06.617Z,6.62
2019-05-18T07:04:34.125Z,6.50
2019-05-18T07:07:01.638Z,6.43
2019-05-18T07:09:29.076Z,6.10
2019-05-18T07:11:56.531Z,6.80
2019-05-18T07:14:26.017Z,6.33
2019-05-18T07:16:51.416Z,5.70
2019-05-18T07:19:18.983Z,6.37
2019-05-18T07:21:46.452Z,6.30
2019-05-18T07:24:13.889Z,6.07
2019-05-18T07:26:41.338Z,6.05
2019-05-18T07:29:08.762Z,6.53
2019-05-18T07:31:36.223Z,5.80
2019-05-18T07:34:04.409Z,5.60
2019-05-18T07:36:32.058Z,5.62
2019-05-18T07:38:59.490Z,6.23
2019-05-18T07:41:26.945Z,6.53
2019-05-18T07:43:58.116Z,6.23
2019-05-18T07:46:26.045Z,5.80
2019-05-18T07:48:53.517Z,6.07
2019-05-18T07:51:21.017Z,6.70
2019-05-18T07:53:48.463Z,6.27
2019-05-18T07:56:16.035Z,5.67
2019-05-18T07:58:43.575Z,5.27
2019-05-18T08:01:11.028Z,5.50
2019-05-18T08:03:39.380Z,6.10
2019-05-18T08:06:06.915Z,5.90
2019-05-18T08:08:34.348Z,5.35
2019-05-18T08:11:01.825Z,5.82
2019-05-18T08:13:29.252Z,5.87
2019-05-18T08:15:56.718Z,5.90
2019-05-18T08:18:24.164Z,6.00
2019-05-18T08:20:51.629Z,5.70
2019-05-18T08:23:19.084Z,5.60
2019-05-18T08:25:46.511Z,7.37
2019-05-18T08:28:13.947Z,6.80
2019-05-18T08:30:41.396Z,6.77
2019-05-18T08:33:08.849Z,6.87
2019-05-18T08:35:36.322Z,7.10
2019-05-18T08:38:03.799Z,7.40
2019-05-18T08:40:31.287Z,6.90
2019-05-18T08:42:58.707Z,7.33
2019-05-18T08:45:26.158Z,7.00
2019-05-18T08:47:53.575Z,7.13
2019-05-18T08:50:21.109Z,6.77
2019-05-18T08:52:48.679Z,6.37
2019-05-18T08:55:16.112Z,6.47
2019-05-18T08:57:43.561Z,6.90
2019-05-18T09:00:11.014Z,5.77
2019-05-18T09:02:38.449Z,6.45
2019-05-18T09:05:05.915Z,6.15
2019-05-18T09:07:33.359Z,6.13
2019-05-18T09:10:00.803Z,5.63
2019-05-18T09:12:28.258Z,5.43
2019-05-18T09:14:55.732Z,6.13
2019-05-18T09:17:23.211Z,5.50
2019-05-18T09:19:50.656Z,5.33
2019-05-18T09:22:23.152Z,5.37
2019-05-18T09:24:45.600Z,6.07
2019-05-18T09:27:13.055Z,4.75
2019-05-18T09:29:40.510Z,5.18
2019-05-18T09:32:07.982Z,5.20
2019-05-18T09:34:35.423Z,5.00
2019-05-18T09:37:02.930Z,4.93
2019-05-18T09:39:30.357Z,5.53
2019-05-18T09:41:59.327Z,5.43
2019-05-18T09:44:26.854Z,5.23
2019-05-18T09:46:54.314Z,4.57
2019-05-18T09:49:21.741Z,5.33
2019-05-18T09:51:49.194Z,5.80
2019-05-18T09:54:16.609Z,4.90
2019-05-18T09:56:44.043Z,5.17
2019-05-18T09:59:11.480Z,4.55
2019-05-18T10:01:38.929Z,6.30
2019-05-18T10:04:06.358Z,5.87
2019-05-18T10:06:33.810Z,6.17
2019-05-18T10:09:01.280Z,6.20
2019-05-18T10:11:29.262Z,5.82
2019-05-18T10:13:56.723Z,6.40
2019-05-18T10:16:24.153Z,5.63
2019-05-18T10:18:51.607Z,5.90
2019-05-18T10:21:19.027Z,6.30
2019-05-18T10:23:46.504Z,6.05
2019-05-18T10:26:13.961Z,5.30
2019-05-18T10:28:42.398Z,5.40
2019-05-18T10:31:09.858Z,5.70
2019-05-18T10:33:37.288Z,5.80
2019-05-18T10:36:04.709Z,6.60
2019-05-18T10:38:32.171Z,6.97
2019-05-18T10:40:59.935Z,5.70
2019-05-18T10:43:27.401Z,5.50
2019-05-18T10:45:54.862Z,5.53
2019-05-18T10:48:22.299Z,5.30
2019-05-18T10:50:49.742Z,5.00
2019-05-18T10:53:28.430Z,5.10
2019-05-18T10:55:44.663Z,5.70
2019-05-18T10:58:12.109Z,6.10
2019-05-18T11:00:39.540Z,5.23
2019-05-18T11:03:07.005Z,4.32
2019-05-18T11:05:34.459Z,4.47
2019-05-18T11:08:01.977Z,5.53
2019-05-18T11:10:29.427Z,4.70
2019-05-18T11:12:56.865Z,4.93
2019-05-18T11:15:24.503Z,4.90
2019-05-18T11:17:51.887Z,4.30
2019-05-18T11:20:19.346Z,4.90
2019-05-18T11:22:46.771Z,4.90
2019-05-18T11:25:14.261Z,4.63
2019-05-18T11:27:41.705Z,5.05
2019-05-18T11:30:09.594Z,4.10
2019-05-18T11:32:36.775Z,3.93
2019-05-18T11:35:05.033Z,4.00
2019-05-18T11:37:32.488Z,4.03
2019-05-18T11:39:59.937Z,4.63
2019-05-18T11:42:27.407Z,3.93
2019-05-18T11:44:54.844Z,3.93
2019-05-18T11:47:22.288Z,4.43
2019-05-18T11:49:49.809Z,4.00
2019-05-18T11:52:17.272Z,4.50
2019-05-18T11:54:44.723Z,3.90
2019-05-18T11:57:12.167Z,4.90
2019-05-18T11:59:39.645Z,4.17
2019-05-18T12:02:07.111Z,4.30
2019-05-18T12:04:34.563Z,4.30
2019-05-18T12:07:02.044Z,4.40
2019-05-18T12:09:29.601Z,4.17
2019-05-18T12:11:57.129Z,5.73
2019-05-18T12:14:24.562Z,5.20
2019-05-18T12:16:52.023Z,5.63
2019-05-18T12:19:19.480Z,5.12
2019-05-18T12:21:46.932Z,5.45
2019-05-18T12:24:15.964Z,5.03
2019-05-18T12:26:41.859Z,4.73
2019-05-18T12:29:09.306Z,4.90
2019-05-18T12:31:36.787Z,5.30
2019-05-18T12:34:04.224Z,5.07
2019-05-18T12:36:32.404Z,5.00
2019-05-18T12:38:59.855Z,4.63
2019-05-18T12:41:29.191Z,5.10
2019-05-18T12:43:56.715Z,3.90
2019-05-18T12:46:24.173Z,4.10
2019-05-18T12:48:51.627Z,3.90
2019-05-18T12:51:19.085Z,3.77
2019-05-18T12:53:46.548Z,4.07
2019-05-18T12:56:14.021Z,3.63
2019-05-18T12:58:41.456Z,4.00
2019-05-18T13:01:08.929Z,3.63
2019-05-18T13:03:36.391Z,3.70
2019-05-18T13:06:03.831Z,3.70
2019-05-18T13:08:31.294Z,3.40
2019-05-18T13:10:58.723Z,3.77
2019-05-18T13:13:26.184Z,4.20
2019-05-18T13:15:53.653Z,3.97
2019-05-18T13:18:21.109Z,4.10
2019-05-18T13:20:48.586Z,3.37
2019-05-18T13:23:16.077Z,3.60
2019-05-18T13:25:43.545Z,3.85
2019-05-18T13:28:11.032Z,3.33
2019-05-18T13:30:38.458Z,4.57
2019-05-18T13:33:10.908Z,3.47
2019-05-18T13:35:38.367Z,4.30
2019-05-18T13:38:05.824Z,3.33
2019-05-18T13:40:33.866Z,3.70
2019-05-18T13:43:01.337Z,3.57
2019-05-18T13:45:28.807Z,3.67
2019-05-18T13:47:56.255Z,4.07
2019-05-18T13:50:24.646Z,3.73
2019-05-18T13:52:52.202Z,3.57
2019-05-18T13:55:19.644Z,3.50
2019-05-18T13:57:47.085Z,3.60
2019-05-18T14:00:14.529Z,5.05
2019-05-18T14:02:42.945Z,4.33
2019-05-18T14:05:10.467Z,4.62
2019-05-18T14:07:37.904Z,4.30
2019-05-18T14:10:06.995Z,4.13
2019-05-18T14:12:34.471Z,6.12
2019-05-18T14:15:02.814Z,4.70
2019-05-18T14:17:30.382Z,4.00
2019-05-18T14:19:57.835Z,4.30
2019-05-18T14:22:25.326Z,4.03
2019-05-18T14:24:52.738Z,3.33
2019-05-18T14:27:20.180Z,3.58
2019-05-18T14:29:47.651Z,3.45
2019-05-18T14:32:15.093Z,3.47
2019-05-18T14:34:42.548Z,3.40
2019-05-18T14:37:11.630Z,3.57
2019-05-18T14:39:39.220Z,3.30
2019-05-18T14:42:06.638Z,3.77
2019-05-18T14:44:35.025Z,3.80
2019-05-18T14:47:02.502Z,3.50
2019-05-18T14:49:30.603Z,3.97
2019-05-18T14:51:58.066Z,4.50
2019-05-18T14:54:25.854Z,4.60
2019-05-18T14:56:53.092Z,5.13
2019-05-18T14:59:20.531Z,5.03
2019-05-18T15:01:47.975Z,5.43
2019-05-18T15:04:15.458Z,4.87
2019-05-18T15:06:42.920Z,4.10
2019-05-18T15:09:10.345Z,4.15
2019-05-18T15:11:37.787Z,3.50
2019-05-18T15:14:05.794Z,3.37
2019-05-18T15:16:33.230Z,3.57
2019-05-18T15:19:00.691Z,3.93
2019-05-18T15:21:28.141Z,4.13
2019-05-18T15:23:55.621Z,4.00
2019-05-18T15:26:23.047Z,3.70
2019-05-18T15:28:50.496Z,3.63
2019-05-18T15:31:19.811Z,3.67
2019-05-18T15:33:47.269Z,3.57
2019-05-18T15:36:17.076Z,3.47
2019-05-18T15:38:44.512Z,3.28
2019-05-18T15:41:15.700Z,3.13
2019-05-18T15:43:43.169Z,3.53
2019-05-18T15:46:10.636Z,3.65
2019-05-18T15:51:07.411Z,4.40
2019-05-18T15:53:34.896Z,4.73
2019-05-18T15:56:05.939Z,4.10
2019-05-18T15:58:29.826Z,3.97
2019-05-18T16:00:57.254Z,3.60
2019-05-18T16:03:24.702Z,3.90
2019-05-18T16:05:52.131Z,5.63
2019-05-18T16:08:19.609Z,3.35
2019-05-18T16:10:47.067Z,3.07
2019-05-18T16:13:14.528Z,2.33
2019-05-18T16:15:42.010Z,2.20
2019-05-18T16:18:09.468Z,2.40
2019-05-18T16:20:36.990Z,2.03
2019-05-18T16:23:04.498Z,2.00
2019-05-18T16:25:31.937Z,2.30
2019-05-18T16:27:59.377Z,3.10
2019-05-18T16:30:26.825Z,2.80
2019-05-18T16:32:54.307Z,2.83
2019-05-18T16:35:21.777Z,3.10
2019-05-18T16:37:49.583Z,3.30
2019-05-18T16:40:17.046Z,3.10
2019-05-18T16:42:46.488Z,3.53
2019-05-18T16:45:12.048Z,3.00
2019-05-18T16:47:39.502Z,3.57
2019-05-18T16:50:08.644Z,3.47
2019-05-18T16:52:36.214Z,3.40
2019-05-18T16:55:03.681Z,3.50
2019-05-18T16:57:31.132Z,3.70
2019-05-18T16:59:58.849Z,4.20
2019-05-18T17:02:31.567Z,3.83
2019-05-18T17:04:53.992Z,3.40
2019-05-18T17:07:21.445Z,4.10
2019-05-18T17:09:48.880Z,3.62
2019-05-18T17:12:16.335Z,3.80
2019-05-18T17:14:43.813Z,4.00
2019-05-18T17:17:11.252Z,4.33
2019-05-18T17:19:38.836Z,3.70
2019-05-18T17:22:06.279Z,3.67
2019-05-18T17:24:33.796Z,3.80
2019-05-18T17:27:01.262Z,3.80
2019-05-18T17:29:28.683Z,3.70
2019-05-18T17:31:56.138Z,4.30
2019-05-18T17:34:23.597Z,3.60
2019-05-18T17:36:52.507Z,3.60
2019-05-18T17:39:18.511Z,3.40
2019-05-18T17:41:45.945Z,3.47
2019-05-18T17:44:13.360Z,3.60
2019-05-18T17:46:40.793Z,3.70
2019-05-18T17:49:24.630Z,3.90
2019-05-18T17:51:36.260Z,3.70
2019-05-18T17:54:03.682Z,3.50
2019-05-18T17:56:31.121Z,3.20
2019-05-18T17:58:59.453Z,3.80
2019-05-18T18:01:27.011Z,3.40
2019-05-18T18:03:54.427Z,3.57
2019-05-18T18:06:21.901Z,3.70
2019-05-18T18:08:49.320Z,3.08
2019-05-18T18:11:16.762Z,4.78
2019-05-18T18:13:44.333Z,4.25
2019-05-18T18:16:11.787Z,4.67
2019-05-18T18:18:39.225Z,4.18
2019-05-18T18:21:06.676Z,3.37
2019-05-18T18:23:34.105Z,3.47
2019-05-18T18:26:01.558Z,3.40
2019-05-18T18:28:29.007Z,3.40
2019-05-18T18:30:56.489Z,3.13
2019-05-18T18:33:23.944Z,3.25
2019-05-18T18:35:51.372Z,3.03
2019-05-18T18:38:18.813Z,3.00
2019-05-18T18:40:46.271Z,2.83
2019-05-18T18:43:13.711Z,3.10
2019-05-18T18:45:41.119Z,3.40
2019-05-18T18:48:08.574Z,3.30
2019-05-18T18:50:36.164Z,3.07
2019-05-18T18:53:03.663Z,3.40
2019-05-18T18:55:31.111Z,3.40
2019-05-18T18:57:58.557Z,3.70
2019-05-18T19:00:25.994Z,3.62
2019-05-18T19:02:53.643Z,3.70
2019-05-18T19:05:21.068Z,3.10
2019-05-18T19:07:48.613Z,3.47
2019-05-18T19:10:16.047Z,3.33
2019-05-18T19:12:43.484Z,3.27
2019-05-18T19:15:10.951Z,3.30
2019-05-18T19:17:38.398Z,3.60
2019-05-18T19:20:05.842Z,3.80
2019-05-18T19:22:33.306Z,3.93
2019-05-18T19:25:00.764Z,4.12
2019-05-18T19:27:28.209Z,4.07
2019-05-18T19:29:55.664Z,4.30
2019-05-18T19:32:23.110Z,4.10
2019-05-18T19:34:50.616Z,4.30
2019-05-18T19:37:18.055Z,4.27
2019-05-18T19:39:46.227Z,4.47
2019-05-18T19:42:13.664Z,4.90
2019-05-18T19:44:41.123Z,4.60
2019-05-18T19:47:08.649Z,5.23
2019-05-18T19:49:36.256Z,5.22
2019-05-18T19:52:04.491Z,5.20
2019-05-18T19:54:31.941Z,4.93
2019-05-18T19:56:59.385Z,4.83
2019-05-18T19:59:26.842Z,4.90
2019-05-18T20:01:54.301Z,4.90
2019-05-18T20:04:21.856Z,5.07
2019-05-18T20:06:49.306Z,5.17
2019-05-18T20:09:16.757Z,5.67
2019-05-18T20:11:44.203Z,4.27
2019-05-18T20:14:11.998Z,5.00
2019-05-18T20:16:39.480Z,5.37
2019-05-18T20:19:06.921Z,5.13
2019-05-18T20:21:35.344Z,5.70
2019-05-18T20:24:02.872Z,6.03
2019-05-18T20:26:30.300Z,5.10
2019-05-18T20:28:57.769Z,4.82
2019-05-18T20:31:25.205Z,5.82
2019-05-18T20:33:52.743Z,5.40
2019-05-18T20:36:20.170Z,5.30
2019-05-18T20:38:47.598Z,5.27
2019-05-18T20:41:15.234Z,5.57
2019-05-18T20:43:43.345Z,6.03
2019-05-18T20:46:10.805Z,5.60
2019-05-18T20:48:38.242Z,5.60
2019-05-18T20:51:05.710Z,5.80
2019-05-18T20:53:33.365Z,5.17
2019-05-18T20:56:01.025Z,5.03
2019-05-18T20:58:39.472Z,5.22
2019-05-18T21:00:56.031Z,5.60
2019-05-18T21:03:23.458Z,6.07
2019-05-18T21:05:50.920Z,5.90
2019-05-18T21:08:18.386Z,6.53
2019-05-18T21:10:45.833Z,5.73
2019-05-18T21:13:13.270Z,5.50
2019-05-18T21:15:40.737Z,6.37
2019-05-18T21:18:08.243Z,5.60
2019-05-18T21:20:36.347Z,5.63
2019-05-18T21:23:04.155Z,5.55
2019-05-18T21:25:31.581Z,5.70
2019-05-18T21:27:59.091Z,6.07
2019-05-18T21:30:26.554Z,5.97
2019-05-18T21:35:16.563Z,5.57
2019-05-18T21:37:44.024Z,6.13
2019-05-18T21:40:11.444Z,6.00
2019-05-18T21:42:38.900Z,6.20
2019-05-18T21:45:06.330Z,5.80
2019-05-18T21:47:33.820Z,5.40
2019-05-18T21:50:01.367Z,5.57
2019-05-18T21:52:28.804Z,5.70
2019-05-18T21:54:56.220Z,6.97
2019-05-18T21:57:23.969Z,7.70
2019-05-18T21:59:51.407Z,8.30
2019-05-18T22:02:19.237Z,8.20
2019-05-18T22:04:46.697Z,8.93
2019-05-18T22:07:14.120Z,8.60
2019-05-18T22:09:41.533Z,8.70
2019-05-18T22:12:09.097Z,8.80
2019-05-18T22:14:36.553Z,7.70
2019-05-18T22:17:03.994Z,6.77
2019-05-18T22:19:31.442Z,6.87
2019-05-18T22:21:59.685Z,6.82
2019-05-18T22:24:27.225Z,5.90
2019-05-18T22:26:54.659Z,5.32
2019-05-18T22:29:22.075Z,5.50
2019-05-18T22:31:49.891Z,5.50
2019-05-18T22:34:17.842Z,5.83
2019-05-18T22:36:45.309Z,5.80
2019-05-18T22:39:12.712Z,5.73
2019-05-18T22:41:40.182Z,5.53
2019-05-18T22:44:07.607Z,5.85
2019-05-18T22:46:35.062Z,6.00
2019-05-18T22:49:02.529Z,6.20
2019-05-18T22:51:29.962Z,6.10
2019-05-18T22:53:57.437Z,6.37
2019-05-18T22:56:24.911Z,6.60
2019-05-18T22:58:52.358Z,5.93
2019-05-18T23:01:20.555Z,6.40
2019-05-18T23:03:47.974Z,6.97
2019-05-18T23:06:15.422Z,7.60
2019-05-18T23:08:42.894Z,7.57
2019-05-18T23:11:10.327Z,9.07
2019-05-18T23:13:37.773Z,8.63
2019-05-18T23:16:05.226Z,9.00
2019-05-18T23:18:32.677Z,8.90
2019-05-18T23:21:00.111Z,8.67
2019-05-18T23:23:27.546Z,8.70
2019-05-18T23:25:54.978Z,8.32
2019-05-18T23:28:22.435Z,8.30
2019-05-18T23:33:10.201Z,9.37
2019-05-18T23:35:37.646Z,9.47
2019-05-18T23:38:05.105Z,9.83
2019-05-18T23:40:32.592Z,11.50
2019-05-18T23:43:00.081Z,11.35
2019-05-18T23:45:27.527Z,12.37
2019-05-18T23:47:54.954Z,12.17
2019-05-18T23:50:22.426Z,12.20
2019-05-18T23:52:49.896Z,13.60
2019-05-18T23:55:18.163Z,12.90
2019-05-18T23:57:45.726Z,13.10
